Lancaster, Wisconsin
Current Conditions -  °F | °C
As of 8:55 AM on Sunday 21 Dec 2014 (Local Time) from KPVB Reporting Station
Overcast Overcast  
Wind Chill: 27°   Ceiling: 400
Heat Index: 34°   Visibility: 2.5mi
Dew Point: 33°   Wind: 9mph
Humidity: 97%   Direction: 160°SSE
Pressure: 30.07"   Gusts: NA
Location:  42.85°N, 90.71°W
Report Text: KPVB 211455Z AUTO 16008KT 2 1/2SM OVC004 01/01 A3007 RMK AO1 T00110007
Loading
Personal Weather Stations






























Interactive Weather Map New forecast layout! Learn more

10-Day Weather Forecast

Advertisements
Track Severe Weather on mobile